sensor_id;sensor_type;location;lat;lon;timestamp;P1;durP1;ratioP1;P2;durP2;ratioP2
15112;SDS011;7657;50.140;7.076;2023-11-19T00:00:11;0.57;;;0.35;;
15112;SDS011;7657;50.140;7.076;2023-11-19T00:02:40;0.50;;;0.50;;
15112;SDS011;7657;50.140;7.076;2023-11-19T00:05:08;0.40;;;0.40;;
15112;SDS011;7657;50.140;7.076;2023-11-19T00:07:36;1.45;;;0.57;;
15112;SDS011;7657;50.140;7.076;2023-11-19T00:10:06;2.30;;;0.80;;
15112;SDS011;7657;50.140;7.076;2023-11-19T00:12:36;0.50;;;0.50;;
15112;SDS011;7657;50.140;7.076;2023-11-19T00:15:03;0.80;;;0.50;;
15112;SDS011;7657;50.140;7.076;2023-11-19T00:17:31;0.65;;;0.60;;
15112;SDS011;7657;50.140;7.076;2023-11-19T00:19:59;0.68;;;0.60;;
15112;SDS011;7657;50.140;7.076;2023-11-19T00:22:30;0.45;;;0.45;;
15112;SDS011;7657;50.140;7.076;2023-11-19T00:24:57;0.80;;;0.60;;
15112;SDS011;7657;50.140;7.076;2023-11-19T00:27:25;0.93;;;0.50;;
15112;SDS011;7657;50.140;7.076;2023-11-19T00:29:52;0.50;;;0.50;;
15112;SDS011;7657;50.140;7.076;2023-11-19T00:32:19;1.20;;;0.73;;
15112;SDS011;7657;50.140;7.076;2023-11-19T00:34:46;0.82;;;0.82;;
15112;SDS011;7657;50.140;7.076;2023-11-19T00:37:14;0.80;;;0.80;;
15112;SDS011;7657;50.140;7.076;2023-11-19T00:39:41;1.10;;;1.00;;
15112;SDS011;7657;50.140;7.076;2023-11-19T00:42:08;3.08;;;1.00;;
15112;SDS011;7657;50.140;7.076;2023-11-19T00:44:36;1.25;;;1.10;;
15112;SDS011;7657;50.140;7.076;2023-11-19T00:47:03;1.15;;;1.08;;
15112;SDS011;7657;50.140;7.076;2023-11-19T00:49:30;1.40;;;1.30;;
15112;SDS011;7657;50.140;7.076;2023-11-19T00:51:58;2.17;;;1.40;;
15112;SDS011;7657;50.140;7.076;2023-11-19T00:54:26;3.92;;;1.20;;
15112;SDS011;7657;50.140;7.076;2023-11-19T00:56:53;1.50;;;1.40;;
15112;SDS011;7657;50.140;7.076;2023-11-19T00:59:20;1.23;;;1.13;;
15112;SDS011;7657;50.140;7.076;2023-11-19T01:01:47;1.63;;;1.38;;
15112;SDS011;7657;50.140;7.076;2023-11-19T01:04:16;2.05;;;1.25;;
15112;SDS011;7657;50.140;7.076;2023-11-19T01:06:43;1.35;;;1.25;;
15112;SDS011;7657;50.140;7.076;2023-11-19T01:09:10;1.50;;;1.30;;
15112;SDS011;7657;50.140;7.076;2023-11-19T01:11:38;1.30;;;1.20;;
15112;SDS011;7657;50.140;7.076;2023-11-19T01:14:05;1.35;;;1.20;;
15112;SDS011;7657;50.140;7.076;2023-11-19T01:16:32;1.38;;;0.88;;
15112;SDS011;7657;50.140;7.076;2023-11-19T01:18:59;0.90;;;0.90;;
15112;SDS011;7657;50.140;7.076;2023-11-19T01:21:29;1.30;;;1.20;;
15112;SDS011;7657;50.140;7.076;2023-11-19T01:23:56;1.23;;;1.10;;
15112;SDS011;7657;50.140;7.076;2023-11-19T01:26:24;1.75;;;1.00;;
15112;SDS011;7657;50.140;7.076;2023-11-19T01:28:53;2.05;;;1.00;;
15112;SDS011;7657;50.140;7.076;2023-11-19T01:31:19;1.00;;;1.00;;
15112;SDS011;7657;50.140;7.076;2023-11-19T01:33:46;0.88;;;0.88;;
15112;SDS011;7657;50.140;7.076;2023-11-19T01:36:13;0.95;;;0.85;;
15112;SDS011;7657;50.140;7.076;2023-11-19T01:38:40;0.80;;;0.80;;
15112;SDS011;7657;50.140;7.076;2023-11-19T01:41:07;0.98;;;0.98;;
15112;SDS011;7657;50.140;7.076;2023-11-19T01:43:34;1.00;;;1.00;;
15112;SDS011;7657;50.140;7.076;2023-11-19T01:46:04;1.33;;;1.08;;
15112;SDS011;7657;50.140;7.076;2023-11-19T01:48:32;1.05;;;1.05;;
15112;SDS011;7657;50.140;7.076;2023-11-19T01:51:01;0.80;;;0.80;;
15112;SDS011;7657;50.140;7.076;2023-11-19T01:53:29;0.93;;;0.88;;
15112;SDS011;7657;50.140;7.076;2023-11-19T01:55:57;0.93;;;0.77;;
15112;SDS011;7657;50.140;7.076;2023-11-19T01:58:25;0.63;;;0.63;;
15112;SDS011;7657;50.140;7.076;2023-11-19T02:00:52;1.05;;;0.80;;
15112;SDS011;7657;50.140;7.076;2023-11-19T02:03:20;0.68;;;0.68;;
15112;SDS011;7657;50.140;7.076;2023-11-19T02:05:48;0.60;;;0.60;;
15112;SDS011;7657;50.140;7.076;2023-11-19T02:08:16;0.63;;;0.63;;
15112;SDS011;7657;50.140;7.076;2023-11-19T02:10:43;0.50;;;0.50;;
15112;SDS011;7657;50.140;7.076;2023-11-19T02:13:10;0.68;;;0.60;;
15112;SDS011;7657;50.140;7.076;2023-11-19T02:15:38;0.38;;;0.38;;
15112;SDS011;7657;50.140;7.076;2023-11-19T02:18:18;0.60;;;0.60;;
15112;SDS011;7657;50.140;7.076;2023-11-19T02:20:53;1.63;;;0.40;;
15112;SDS011;7657;50.140;7.076;2023-11-19T02:23:20;0.47;;;0.47;;
15112;SDS011;7657;50.140;7.076;2023-11-19T02:25:51;0.80;;;0.30;;
15112;SDS011;7657;50.140;7.076;2023-11-19T02:28:29;0.40;;;0.40;;
15112;SDS011;7657;50.140;7.076;2023-11-19T02:30:57;0.30;;;0.30;;
15112;SDS011;7657;50.140;7.076;2023-11-19T02:33:24;0.40;;;0.40;;
15112;SDS011;7657;50.140;7.076;2023-11-19T02:35:51;0.50;;;0.50;;
15112;SDS011;7657;50.140;7.076;2023-11-19T02:38:18;0.40;;;0.40;;
15112;SDS011;7657;50.140;7.076;2023-11-19T02:40:46;0.30;;;0.30;;
15112;SDS011;7657;50.140;7.076;2023-11-19T02:43:14;0.68;;;0.47;;
15112;SDS011;7657;50.140;7.076;2023-11-19T02:45:42;1.05;;;0.40;;
15112;SDS011;7657;50.140;7.076;2023-11-19T02:48:10;0.38;;;0.22;;
15112;SDS011;7657;50.140;7.076;2023-11-19T02:50:39;0.47;;;0.38;;
15112;SDS011;7657;50.140;7.076;2023-11-19T02:53:06;0.25;;;0.20;;
15112;SDS011;7657;50.140;7.076;2023-11-19T02:55:33;0.73;;;0.35;;
15112;SDS011;7657;50.140;7.076;2023-11-19T02:58:03;0.20;;;0.20;;
15112;SDS011;7657;50.140;7.076;2023-11-19T03:00:34;0.50;;;0.20;;
15112;SDS011;7657;50.140;7.076;2023-11-19T03:03:08;0.20;;;0.13;;
15112;SDS011;7657;50.140;7.076;2023-11-19T03:05:45;0.22;;;0.15;;
15112;SDS011;7657;50.140;7.076;2023-11-19T03:08:13;0.20;;;0.20;;
15112;SDS011;7657;50.140;7.076;2023-11-19T03:10:40;0.10;;;0.10;;
15112;SDS011;7657;50.140;7.076;2023-11-19T03:13:08;0.30;;;0.20;;
15112;SDS011;7657;50.140;7.076;2023-11-19T03:15:39;0.43;;;0.20;;
15112;SDS011;7657;50.140;7.076;2023-11-19T03:18:06;0.20;;;0.20;;
15112;SDS011;7657;50.140;7.076;2023-11-19T03:20:34;1.25;;;0.25;;
15112;SDS011;7657;50.140;7.076;2023-11-19T03:23:01;0.45;;;0.20;;
15112;SDS011;7657;50.140;7.076;2023-11-19T03:25:28;0.20;;;0.20;;
15112;SDS011;7657;50.140;7.076;2023-11-19T03:27:58;0.30;;;0.30;;
15112;SDS011;7657;50.140;7.076;2023-11-19T03:30:26;1.00;;;0.35;;
15112;SDS011;7657;50.140;7.076;2023-11-19T03:32:53;0.50;;;0.40;;
15112;SDS011;7657;50.140;7.076;2023-11-19T03:35:20;0.20;;;0.20;;
15112;SDS011;7657;50.140;7.076;2023-11-19T03:37:49;0.20;;;0.20;;
15112;SDS011;7657;50.140;7.076;2023-11-19T03:40:17;0.30;;;0.30;;
15112;SDS011;7657;50.140;7.076;2023-11-19T03:42:45;0.20;;;0.20;;
15112;SDS011;7657;50.140;7.076;2023-11-19T03:45:12;1.20;;;0.20;;
15112;SDS011;7657;50.140;7.076;2023-11-19T03:47:39;0.20;;;0.20;;
15112;SDS011;7657;50.140;7.076;2023-11-19T03:50:06;0.17;;;0.17;;
15112;SDS011;7657;50.140;7.076;2023-11-19T03:52:34;0.40;;;0.20;;
15112;SDS011;7657;50.140;7.076;2023-11-19T03:55:02;0.80;;;0.30;;
15112;SDS011;7657;50.140;7.076;2023-11-19T03:57:30;1.85;;;0.30;;
15112;SDS011;7657;50.140;7.076;2023-11-19T03:59:57;0.20;;;0.20;;
15112;SDS011;7657;50.140;7.076;2023-11-19T04:02:24;0.20;;;0.20;;
15112;SDS011;7657;50.140;7.076;2023-11-19T04:04:53;0.30;;;0.30;;
15112;SDS011;7657;50.140;7.076;2023-11-19T04:07:21;0.20;;;0.20;;
15112;SDS011;7657;50.140;7.076;2023-11-19T04:09:47;0.77;;;0.50;;
15112;SDS011;7657;50.140;7.076;2023-11-19T04:12:16;0.40;;;0.40;;
15112;SDS011;7657;50.140;7.076;2023-11-19T04:14:43;0.30;;;0.30;;
15112;SDS011;7657;50.140;7.076;2023-11-19T04:17:10;0.90;;;0.43;;
15112;SDS011;7657;50.140;7.076;2023-11-19T04:19:37;1.67;;;0.80;;
15112;SDS011;7657;50.140;7.076;2023-11-19T04:22:06;0.68;;;0.68;;
15112;SDS011;7657;50.140;7.076;2023-11-19T04:24:34;1.25;;;1.15;;
15112;SDS011;7657;50.140;7.076;2023-11-19T04:27:00;1.95;;;1.10;;
15112;SDS011;7657;50.140;7.076;2023-11-19T04:29:30;1.38;;;1.27;;
15112;SDS011;7657;50.140;7.076;2023-11-19T04:31:57;1.38;;;1.23;;
15112;SDS011;7657;50.140;7.076;2023-11-19T04:34:24;1.13;;;1.05;;
15112;SDS011;7657;50.140;7.076;2023-11-19T04:36:51;1.35;;;1.25;;
15112;SDS011;7657;50.140;7.076;2023-11-19T04:39:18;1.83;;;1.65;;
15112;SDS011;7657;50.140;7.076;2023-11-19T04:41:48;1.88;;;1.50;;
15112;SDS011;7657;50.140;7.076;2023-11-19T04:44:15;1.90;;;1.70;;
15112;SDS011;7657;50.140;7.076;2023-11-19T04:46:44;2.30;;;2.05;;
15112;SDS011;7657;50.140;7.076;2023-11-19T04:49:12;2.80;;;1.95;;
15112;SDS011;7657;50.140;7.076;2023-11-19T04:51:39;2.03;;;1.88;;
15112;SDS011;7657;50.140;7.076;2023-11-19T04:54:07;3.35;;;1.83;;
15112;SDS011;7657;50.140;7.076;2023-11-19T04:56:34;2.40;;;2.20;;
15112;SDS011;7657;50.140;7.076;2023-11-19T04:59:02;2.92;;;2.20;;
15112;SDS011;7657;50.140;7.076;2023-11-19T05:01:30;2.63;;;2.00;;
15112;SDS011;7657;50.140;7.076;2023-11-19T05:03:59;2.40;;;1.85;;
15112;SDS011;7657;50.140;7.076;2023-11-19T05:06:27;1.92;;;1.80;;
15112;SDS011;7657;50.140;7.076;2023-11-19T05:08:54;3.38;;;1.67;;
15112;SDS011;7657;50.140;7.076;2023-11-19T05:11:21;2.03;;;1.83;;
15112;SDS011;7657;50.140;7.076;2023-11-19T05:13:48;2.28;;;1.98;;
15112;SDS011;7657;50.140;7.076;2023-11-19T05:16:16;3.38;;;1.98;;
15112;SDS011;7657;50.140;7.076;2023-11-19T05:18:43;4.40;;;1.90;;
15112;SDS011;7657;50.140;7.076;2023-11-19T05:21:12;2.33;;;1.70;;
15112;SDS011;7657;50.140;7.076;2023-11-19T05:23:39;3.75;;;1.90;;
15112;SDS011;7657;50.140;7.076;2023-11-19T05:26:07;2.42;;;1.50;;
15112;SDS011;7657;50.140;7.076;2023-11-19T05:28:35;2.97;;;1.70;;
15112;SDS011;7657;50.140;7.076;2023-11-19T05:31:04;2.00;;;1.23;;
15112;SDS011;7657;50.140;7.076;2023-11-19T05:33:32;3.63;;;1.60;;
15112;SDS011;7657;50.140;7.076;2023-11-19T05:35:58;5.38;;;1.80;;
15112;SDS011;7657;50.140;7.076;2023-11-19T05:38:29;2.65;;;1.73;;
15112;SDS011;7657;50.140;7.076;2023-11-19T05:40:56;4.13;;;1.45;;
15112;SDS011;7657;50.140;7.076;2023-11-19T05:43:23;2.20;;;1.30;;
15112;SDS011;7657;50.140;7.076;2023-11-19T05:45:50;3.50;;;1.40;;
15112;SDS011;7657;50.140;7.076;2023-11-19T05:48:17;4.22;;;1.63;;
15112;SDS011;7657;50.140;7.076;2023-11-19T05:50:44;5.22;;;1.60;;
15112;SDS011;7657;50.140;7.076;2023-11-19T05:53:11;4.22;;;1.67;;
15112;SDS011;7657;50.140;7.076;2023-11-19T05:55:41;2.75;;;1.40;;
15112;SDS011;7657;50.140;7.076;2023-11-19T05:58:13;1.98;;;1.63;;
15112;SDS011;7657;50.140;7.076;2023-11-19T06:00:41;4.53;;;1.65;;
15112;SDS011;7657;50.140;7.076;2023-11-19T06:03:08;2.97;;;1.58;;
15112;SDS011;7657;50.140;7.076;2023-11-19T06:05:35;2.88;;;1.10;;
15112;SDS011;7657;50.140;7.076;2023-11-19T06:08:02;2.80;;;1.30;;
15112;SDS011;7657;50.140;7.076;2023-11-19T06:10:28;1.73;;;1.40;;
15112;SDS011;7657;50.140;7.076;2023-11-19T06:12:58;1.85;;;1.50;;
15112;SDS011;7657;50.140;7.076;2023-11-19T06:15:26;1.83;;;1.20;;
15112;SDS011;7657;50.140;7.076;2023-11-19T06:17:53;3.13;;;1.60;;
15112;SDS011;7657;50.140;7.076;2023-11-19T06:20:20;4.32;;;1.52;;
15112;SDS011;7657;50.140;7.076;2023-11-19T06:22:47;3.75;;;1.17;;
15112;SDS011;7657;50.140;7.076;2023-11-19T06:25:15;3.80;;;1.30;;
15112;SDS011;7657;50.140;7.076;2023-11-19T06:27:42;4.07;;;1.30;;
15112;SDS011;7657;50.140;7.076;2023-11-19T06:30:10;4.70;;;1.42;;
15112;SDS011;7657;50.140;7.076;2023-11-19T06:32:38;3.97;;;1.60;;
15112;SDS011;7657;50.140;7.076;2023-11-19T06:35:05;3.50;;;1.50;;
15112;SDS011;7657;50.140;7.076;2023-11-19T06:37:32;3.28;;;1.80;;
15112;SDS011;7657;50.140;7.076;2023-11-19T06:39:59;5.28;;;1.30;;
15112;SDS011;7657;50.140;7.076;2023-11-19T06:42:26;4.25;;;1.50;;
15112;SDS011;7657;50.140;7.076;2023-11-19T06:44:53;3.67;;;1.50;;
15112;SDS011;7657;50.140;7.076;2023-11-19T06:47:24;5.43;;;1.70;;
15112;SDS011;7657;50.140;7.076;2023-11-19T06:49:52;2.00;;;1.20;;
15112;SDS011;7657;50.140;7.076;2023-11-19T06:52:19;2.75;;;1.25;;
15112;SDS011;7657;50.140;7.076;2023-11-19T06:54:46;4.97;;;1.63;;
15112;SDS011;7657;50.140;7.076;2023-11-19T06:57:12;4.05;;;1.60;;
15112;SDS011;7657;50.140;7.076;2023-11-19T06:59:39;6.25;;;2.25;;
15112;SDS011;7657;50.140;7.076;2023-11-19T07:02:06;1.38;;;1.17;;
15112;SDS011;7657;50.140;7.076;2023-11-19T07:04:35;3.60;;;1.15;;
15112;SDS011;7657;50.140;7.076;2023-11-19T07:07:02;2.20;;;1.40;;
15112;SDS011;7657;50.140;7.076;2023-11-19T07:09:30;3.50;;;1.50;;
15112;SDS011;7657;50.140;7.076;2023-11-19T07:11:57;5.28;;;1.70;;
15112;SDS011;7657;50.140;7.076;2023-11-19T07:14:25;4.18;;;1.55;;
15112;SDS011;7657;50.140;7.076;2023-11-19T07:16:51;6.35;;;1.95;;
15112;SDS011;7657;50.140;7.076;2023-11-19T07:19:18;4.63;;;1.42;;
15112;SDS011;7657;50.140;7.076;2023-11-19T07:21:47;5.57;;;1.85;;
15112;SDS011;7657;50.140;7.076;2023-11-19T07:24:14;4.88;;;1.80;;
15112;SDS011;7657;50.140;7.076;2023-11-19T07:26:42;5.40;;;1.80;;
15112;SDS011;7657;50.140;7.076;2023-11-19T07:29:09;5.25;;;1.58;;
15112;SDS011;7657;50.140;7.076;2023-11-19T07:31:37;8.68;;;2.00;;
15112;SDS011;7657;50.140;7.076;2023-11-19T07:34:03;9.40;;;2.20;;
15112;SDS011;7657;50.140;7.076;2023-11-19T07:36:31;7.53;;;1.98;;
15112;SDS011;7657;50.140;7.076;2023-11-19T07:39:00;5.82;;;1.88;;
15112;SDS011;7657;50.140;7.076;2023-11-19T07:41:27;7.47;;;1.90;;
15112;SDS011;7657;50.140;7.076;2023-11-19T07:43:54;7.38;;;1.80;;
15112;SDS011;7657;50.140;7.076;2023-11-19T07:46:21;7.43;;;2.03;;
15112;SDS011;7657;50.140;7.076;2023-11-19T07:48:48;6.80;;;2.20;;
15112;SDS011;7657;50.140;7.076;2023-11-19T07:51:15;6.80;;;2.63;;
15112;SDS011;7657;50.140;7.076;2023-11-19T07:53:42;4.80;;;1.98;;
15112;SDS011;7657;50.140;7.076;2023-11-19T07:56:10;12.10;;;2.38;;
15112;SDS011;7657;50.140;7.076;2023-11-19T07:58:37;9.95;;;2.50;;
15112;SDS011;7657;50.140;7.076;2023-11-19T08:01:05;11.85;;;2.03;;
15112;SDS011;7657;50.140;7.076;2023-11-19T08:03:32;6.82;;;2.20;;
15112;SDS011;7657;50.140;7.076;2023-11-19T08:05:59;21.90;;;13.23;;
15112;SDS011;7657;50.140;7.076;2023-11-19T08:08:27;8.73;;;2.63;;
15112;SDS011;7657;50.140;7.076;2023-11-19T08:10:54;6.85;;;2.42;;
15112;SDS011;7657;50.140;7.076;2023-11-19T08:13:23;9.10;;;2.40;;
15112;SDS011;7657;50.140;7.076;2023-11-19T08:15:50;7.95;;;1.80;;
15112;SDS011;7657;50.140;7.076;2023-11-19T08:18:17;9.63;;;2.38;;
15112;SDS011;7657;50.140;7.076;2023-11-19T08:20:44;8.57;;;2.17;;
15112;SDS011;7657;50.140;7.076;2023-11-19T08:23:15;9.73;;;2.15;;
15112;SDS011;7657;50.140;7.076;2023-11-19T08:25:41;7.03;;;2.08;;
15112;SDS011;7657;50.140;7.076;2023-11-19T08:28:09;5.35;;;1.83;;
15112;SDS011;7657;50.140;7.076;2023-11-19T08:30:37;10.02;;;2.00;;
15112;SDS011;7657;50.140;7.076;2023-11-19T08:33:04;8.65;;;2.35;;
15112;SDS011;7657;50.140;7.076;2023-11-19T08:35:32;7.43;;;2.42;;
15112;SDS011;7657;50.140;7.076;2023-11-19T08:37:58;8.02;;;2.75;;
15112;SDS011;7657;50.140;7.076;2023-11-19T08:40:26;9.50;;;2.38;;
15112;SDS011;7657;50.140;7.076;2023-11-19T08:42:53;6.10;;;1.90;;
15112;SDS011;7657;50.140;7.076;2023-11-19T08:45:21;10.48;;;2.58;;
15112;SDS011;7657;50.140;7.076;2023-11-19T08:47:49;9.80;;;2.05;;
15112;SDS011;7657;50.140;7.076;2023-11-19T08:50:16;10.10;;;2.80;;
15112;SDS011;7657;50.140;7.076;2023-11-19T08:52:43;12.23;;;2.42;;
15112;SDS011;7657;50.140;7.076;2023-11-19T08:55:10;11.18;;;2.10;;
15112;SDS011;7657;50.140;7.076;2023-11-19T08:57:38;10.90;;;2.70;;
15112;SDS011;7657;50.140;7.076;2023-11-19T09:00:06;10.13;;;2.13;;
15112;SDS011;7657;50.140;7.076;2023-11-19T09:02:34;8.00;;;3.05;;
15112;SDS011;7657;50.140;7.076;2023-11-19T09:05:01;12.13;;;2.30;;
15112;SDS011;7657;50.140;7.076;2023-11-19T09:07:28;8.70;;;3.20;;
15112;SDS011;7657;50.140;7.076;2023-11-19T09:09:55;9.95;;;2.88;;
15112;SDS011;7657;50.140;7.076;2023-11-19T09:12:22;8.15;;;2.17;;
15112;SDS011;7657;50.140;7.076;2023-11-19T09:14:49;12.73;;;2.53;;
15112;SDS011;7657;50.140;7.076;2023-11-19T09:17:16;7.10;;;2.47;;
15112;SDS011;7657;50.140;7.076;2023-11-19T09:19:43;8.68;;;2.60;;
15112;SDS011;7657;50.140;7.076;2023-11-19T09:22:12;9.93;;;2.58;;
15112;SDS011;7657;50.140;7.076;2023-11-19T09:24:39;12.15;;;3.15;;
15112;SDS011;7657;50.140;7.076;2023-11-19T09:27:06;9.23;;;2.60;;
15112;SDS011;7657;50.140;7.076;2023-11-19T09:29:33;8.32;;;2.17;;
15112;SDS011;7657;50.140;7.076;2023-11-19T09:32:00;7.55;;;2.40;;
15112;SDS011;7657;50.140;7.076;2023-11-19T09:34:27;9.00;;;2.60;;
15112;SDS011;7657;50.140;7.076;2023-11-19T09:36:54;8.95;;;2.33;;
15112;SDS011;7657;50.140;7.076;2023-11-19T09:39:22;7.32;;;2.55;;
15112;SDS011;7657;50.140;7.076;2023-11-19T09:41:51;8.43;;;2.47;;
15112;SDS011;7657;50.140;7.076;2023-11-19T09:44:18;11.90;;;2.75;;
15112;SDS011;7657;50.140;7.076;2023-11-19T09:46:45;10.07;;;2.55;;
15112;SDS011;7657;50.140;7.076;2023-11-19T09:49:14;6.78;;;2.30;;
15112;SDS011;7657;50.140;7.076;2023-11-19T09:51:43;8.20;;;2.35;;
15112;SDS011;7657;50.140;7.076;2023-11-19T09:54:10;11.90;;;2.88;;
15112;SDS011;7657;50.140;7.076;2023-11-19T09:56:39;10.38;;;2.53;;
15112;SDS011;7657;50.140;7.076;2023-11-19T09:59:07;10.88;;;2.67;;
15112;SDS011;7657;50.140;7.076;2023-11-19T10:01:36;10.07;;;2.65;;
15112;SDS011;7657;50.140;7.076;2023-11-19T10:04:04;11.55;;;2.53;;
15112;SDS011;7657;50.140;7.076;2023-11-19T10:06:32;9.68;;;2.70;;
15112;SDS011;7657;50.140;7.076;2023-11-19T10:08:59;10.43;;;3.05;;
15112;SDS011;7657;50.140;7.076;2023-11-19T10:11:26;8.25;;;2.75;;
15112;SDS011;7657;50.140;7.076;2023-11-19T10:13:55;8.45;;;3.58;;
15112;SDS011;7657;50.140;7.076;2023-11-19T10:16:27;9.77;;;2.55;;
15112;SDS011;7657;50.140;7.076;2023-11-19T10:18:55;14.32;;;7.15;;
15112;SDS011;7657;50.140;7.076;2023-11-19T10:21:22;11.05;;;4.07;;
15112;SDS011;7657;50.140;7.076;2023-11-19T10:23:50;11.73;;;5.03;;
15112;SDS011;7657;50.140;7.076;2023-11-19T10:26:19;7.10;;;2.78;;
15112;SDS011;7657;50.140;7.076;2023-11-19T10:28:46;8.20;;;2.83;;
15112;SDS011;7657;50.140;7.076;2023-11-19T10:31:15;10.63;;;6.20;;
15112;SDS011;7657;50.140;7.076;2023-11-19T10:33:43;7.90;;;2.33;;
15112;SDS011;7657;50.140;7.076;2023-11-19T10:36:10;10.25;;;2.42;;
15112;SDS011;7657;50.140;7.076;2023-11-19T10:38:38;8.10;;;2.55;;
15112;SDS011;7657;50.140;7.076;2023-11-19T10:41:05;8.88;;;3.80;;
15112;SDS011;7657;50.140;7.076;2023-11-19T10:43:42;7.63;;;2.63;;
15112;SDS011;7657;50.140;7.076;2023-11-19T10:46:10;8.80;;;2.58;;
15112;SDS011;7657;50.140;7.076;2023-11-19T10:48:39;8.95;;;2.58;;
15112;SDS011;7657;50.140;7.076;2023-11-19T10:51:07;11.77;;;2.53;;
15112;SDS011;7657;50.140;7.076;2023-11-19T10:53:35;12.65;;;2.53;;
15112;SDS011;7657;50.140;7.076;2023-11-19T10:56:06;7.50;;;2.08;;
15112;SDS011;7657;50.140;7.076;2023-11-19T10:58:36;10.30;;;3.67;;
15112;SDS011;7657;50.140;7.076;2023-11-19T11:01:11;11.93;;;4.90;;
15112;SDS011;7657;50.140;7.076;2023-11-19T11:03:43;7.63;;;3.65;;
15112;SDS011;7657;50.140;7.076;2023-11-19T11:06:12;13.60;;;6.88;;
15112;SDS011;7657;50.140;7.076;2023-11-19T11:08:40;12.82;;;2.45;;
15112;SDS011;7657;50.140;7.076;2023-11-19T11:11:07;11.23;;;5.80;;
15112;SDS011;7657;50.140;7.076;2023-11-19T11:13:37;9.88;;;3.70;;
15112;SDS011;7657;50.140;7.076;2023-11-19T11:16:08;8.75;;;3.58;;
15112;SDS011;7657;50.140;7.076;2023-11-19T11:18:36;9.20;;;2.78;;
15112;SDS011;7657;50.140;7.076;2023-11-19T11:21:05;10.77;;;2.00;;
15112;SDS011;7657;50.140;7.076;2023-11-19T11:26:33;6.05;;;2.05;;
15112;SDS011;7657;50.140;7.076;2023-11-19T11:29:14;7.50;;;2.50;;
15112;SDS011;7657;50.140;7.076;2023-11-19T11:31:48;8.05;;;3.45;;
15112;SDS011;7657;50.140;7.076;2023-11-19T11:37:24;14.25;;;6.78;;
15112;SDS011;7657;50.140;7.076;2023-11-19T11:39:57;13.93;;;3.88;;
15112;SDS011;7657;50.140;7.076;2023-11-19T11:42:34;16.77;;;6.95;;
15112;SDS011;7657;50.140;7.076;2023-11-19T11:45:02;8.90;;;2.95;;
15112;SDS011;7657;50.140;7.076;2023-11-19T11:50:36;14.02;;;6.82;;
15112;SDS011;7657;50.140;7.076;2023-11-19T11:53:19;7.93;;;3.20;;
15112;SDS011;7657;50.140;7.076;2023-11-19T11:55:52;4.82;;;2.40;;
15112;SDS011;7657;50.140;7.076;2023-11-19T11:58:25;9.93;;;3.40;;
15112;SDS011;7657;50.140;7.076;2023-11-19T12:00:56;10.38;;;2.45;;
15112;SDS011;7657;50.140;7.076;2023-11-19T12:03:26;10.13;;;3.95;;
15112;SDS011;7657;50.140;7.076;2023-11-19T12:05:53;5.57;;;2.17;;
15112;SDS011;7657;50.140;7.076;2023-11-19T12:08:24;11.63;;;3.80;;
15112;SDS011;7657;50.140;7.076;2023-11-19T12:10:52;8.10;;;2.47;;
15112;SDS011;7657;50.140;7.076;2023-11-19T12:13:23;7.82;;;3.78;;
15112;SDS011;7657;50.140;7.076;2023-11-19T12:16:09;9.57;;;3.88;;
15112;SDS011;7657;50.140;7.076;2023-11-19T12:18:38;11.57;;;4.15;;
15112;SDS011;7657;50.140;7.076;2023-11-19T12:21:09;8.80;;;3.25;;
15112;SDS011;7657;50.140;7.076;2023-11-19T12:23:45;10.68;;;4.47;;
15112;SDS011;7657;50.140;7.076;2023-11-19T12:26:32;12.18;;;5.18;;
15112;SDS011;7657;50.140;7.076;2023-11-19T12:29:03;9.32;;;3.90;;
15112;SDS011;7657;50.140;7.076;2023-11-19T12:31:31;7.18;;;2.88;;
15112;SDS011;7657;50.140;7.076;2023-11-19T12:33:57;8.80;;;4.28;;
15112;SDS011;7657;50.140;7.076;2023-11-19T12:36:25;8.07;;;2.17;;
15112;SDS011;7657;50.140;7.076;2023-11-19T12:38:53;10.90;;;2.55;;
15112;SDS011;7657;50.140;7.076;2023-11-19T12:41:20;7.05;;;2.20;;
15112;SDS011;7657;50.140;7.076;2023-11-19T12:43:48;10.80;;;2.28;;
15112;SDS011;7657;50.140;7.076;2023-11-19T12:46:18;11.00;;;2.47;;
15112;SDS011;7657;50.140;7.076;2023-11-19T12:48:46;8.43;;;2.38;;
15112;SDS011;7657;50.140;7.076;2023-11-19T12:51:13;6.22;;;2.22;;
15112;SDS011;7657;50.140;7.076;2023-11-19T12:53:47;7.03;;;2.15;;
15112;SDS011;7657;50.140;7.076;2023-11-19T12:56:16;9.82;;;3.17;;
15112;SDS011;7657;50.140;7.076;2023-11-19T12:58:43;5.10;;;2.40;;
15112;SDS011;7657;50.140;7.076;2023-11-19T13:01:15;8.15;;;2.08;;
15112;SDS011;7657;50.140;7.076;2023-11-19T13:03:44;9.57;;;2.97;;
15112;SDS011;7657;50.140;7.076;2023-11-19T13:06:11;8.75;;;2.20;;
15112;SDS011;7657;50.140;7.076;2023-11-19T13:08:41;12.57;;;3.28;;
15112;SDS011;7657;50.140;7.076;2023-11-19T13:11:09;12.10;;;4.97;;
15112;SDS011;7657;50.140;7.076;2023-11-19T13:13:57;15.95;;;7.13;;
15112;SDS011;7657;50.140;7.076;2023-11-19T13:16:25;18.58;;;7.75;;
15112;SDS011;7657;50.140;7.076;2023-11-19T13:18:53;23.42;;;8.20;;
15112;SDS011;7657;50.140;7.076;2023-11-19T13:21:20;52.05;;;21.25;;
15112;SDS011;7657;50.140;7.076;2023-11-19T13:23:47;11.32;;;3.70;;
15112;SDS011;7657;50.140;7.076;2023-11-19T13:26:14;18.52;;;6.97;;
15112;SDS011;7657;50.140;7.076;2023-11-19T13:28:40;17.02;;;4.60;;
15112;SDS011;7657;50.140;7.076;2023-11-19T13:31:09;22.45;;;10.23;;
15112;SDS011;7657;50.140;7.076;2023-11-19T13:33:36;19.75;;;9.52;;
15112;SDS011;7657;50.140;7.076;2023-11-19T13:36:03;6.10;;;3.15;;
15112;SDS011;7657;50.140;7.076;2023-11-19T13:38:32;22.60;;;9.05;;
15112;SDS011;7657;50.140;7.076;2023-11-19T13:41:00;11.75;;;4.57;;
15112;SDS011;7657;50.140;7.076;2023-11-19T13:43:27;11.73;;;3.63;;
15112;SDS011;7657;50.140;7.076;2023-11-19T13:45:54;17.98;;;5.90;;
15112;SDS011;7657;50.140;7.076;2023-11-19T13:48:23;15.52;;;5.70;;
15112;SDS011;7657;50.140;7.076;2023-11-19T13:50:51;8.85;;;3.40;;
15112;SDS011;7657;50.140;7.076;2023-11-19T13:53:18;25.60;;;9.73;;
15112;SDS011;7657;50.140;7.076;2023-11-19T13:55:45;46.58;;;17.02;;
15112;SDS011;7657;50.140;7.076;2023-11-19T13:58:12;24.77;;;7.47;;
15112;SDS011;7657;50.140;7.076;2023-11-19T14:00:39;26.42;;;9.80;;
15112;SDS011;7657;50.140;7.076;2023-11-19T14:03:07;16.80;;;6.63;;
15112;SDS011;7657;50.140;7.076;2023-11-19T14:05:36;35.80;;;15.35;;
15112;SDS011;7657;50.140;7.076;2023-11-19T14:08:04;23.88;;;9.10;;
15112;SDS011;7657;50.140;7.076;2023-11-19T14:10:36;15.48;;;7.00;;
15112;SDS011;7657;50.140;7.076;2023-11-19T14:13:05;8.20;;;2.35;;
15112;SDS011;7657;50.140;7.076;2023-11-19T14:15:32;9.63;;;1.92;;
15112;SDS011;7657;50.140;7.076;2023-11-19T14:17:59;5.53;;;2.53;;
15112;SDS011;7657;50.140;7.076;2023-11-19T14:20:26;7.70;;;2.25;;
15112;SDS011;7657;50.140;7.076;2023-11-19T14:22:54;5.75;;;2.20;;
15112;SDS011;7657;50.140;7.076;2023-11-19T14:25:21;7.75;;;2.45;;
15112;SDS011;7657;50.140;7.076;2023-11-19T14:27:48;10.10;;;3.05;;
15112;SDS011;7657;50.140;7.076;2023-11-19T14:30:15;40.85;;;16.17;;
15112;SDS011;7657;50.140;7.076;2023-11-19T14:32:43;12.35;;;4.78;;
15112;SDS011;7657;50.140;7.076;2023-11-19T14:35:11;9.55;;;2.22;;
15112;SDS011;7657;50.140;7.076;2023-11-19T14:37:38;9.13;;;3.65;;
15112;SDS011;7657;50.140;7.076;2023-11-19T14:40:07;8.57;;;3.28;;
15112;SDS011;7657;50.140;7.076;2023-11-19T14:42:36;6.63;;;2.55;;
15112;SDS011;7657;50.140;7.076;2023-11-19T14:45:04;5.90;;;2.38;;
15112;SDS011;7657;50.140;7.076;2023-11-19T14:47:32;8.68;;;2.70;;
15112;SDS011;7657;50.140;7.076;2023-11-19T14:49:58;7.22;;;2.40;;
15112;SDS011;7657;50.140;7.076;2023-11-19T14:52:26;8.38;;;2.85;;
15112;SDS011;7657;50.140;7.076;2023-11-19T14:54:52;7.10;;;2.40;;
15112;SDS011;7657;50.140;7.076;2023-11-19T14:57:23;7.75;;;2.10;;
15112;SDS011;7657;50.140;7.076;2023-11-19T14:59:49;12.10;;;5.88;;
15112;SDS011;7657;50.140;7.076;2023-11-19T15:02:17;13.68;;;6.38;;
15112;SDS011;7657;50.140;7.076;2023-11-19T15:04:44;13.95;;;8.70;;
15112;SDS011;7657;50.140;7.076;2023-11-19T15:07:11;19.85;;;10.73;;
15112;SDS011;7657;50.140;7.076;2023-11-19T15:09:38;15.30;;;6.15;;
15112;SDS011;7657;50.140;7.076;2023-11-19T15:12:05;9.52;;;3.30;;